Time;durP1;ratioP1;P1;durP2;ratioP2;P2;SDS_P1;SDS_P2;PMS_P1;PMS_P2;Temp;Humidity;BMP_temperature;BMP_pressure;BME280_temperature;BME280_humidity;BME280_pressure;Samples;Min_cycle;Max_cycle;Signal;HPM_P1;HPM_P2
2022/01/06 00:01:56;;;;;;;;;18.00;18.00;;;;;;;;5272385;28;8912;-68
2022/01/06 00:04:27;;;;;;;;;5.00;5.00;;;;;;;;5239886;28;8938;-68
2022/01/06 00:06:59;;;;;;;;;5.50;4.50;;;;;;;;5271422;28;9439;-68
2022/01/06 00:09:30;;;;;;;;;12.50;12.25;;;;;;;;5290531;28;8811;-68
2022/01/06 00:12:02;;;;;;;;;18.00;17.00;;;;;;;;5239223;28;8779;-68
2022/01/06 00:14:59;;;;;;;;;15.00;14.25;;;;;;;;5272384;28;9467;-69
2022/01/06 00:17:58;;;;;;;;;26.00;23.00;;;;;;;;5255632;28;8853;-69
2022/01/06 00:25:52;;;;;;;;;29.33;29.33;;;;;;;;5290169;28;9646;-69
2022/01/06 00:28:24;;;;;;;;;33.67;32.33;;;;;;;;5255304;28;9977;-68
2022/01/06 00:30:56;;;;;;;;;21.67;21.67;;;;;;;;5272310;28;9419;-69
2022/01/06 00:33:28;;;;;;;;;26.67;26.33;;;;;;;;5272513;28;9156;-68
2022/01/06 00:36:17;;;;;;;;;21.00;21.00;;;;;;;;5290066;28;8944;-68
2022/01/06 00:38:49;;;;;;;;;19.00;18.33;;;;;;;;5255214;28;9038;-68
2022/01/06 00:41:20;;;;;;;;;24.33;24.33;;;;;;;;5271748;28;9259;-69
2022/01/06 00:43:52;;;;;;;;;25.67;22.67;;;;;;;;5255300;28;9233;-68
2022/01/06 00:46:23;;;;;;;;;20.00;19.00;;;;;;;;5271519;28;8943;-69
2022/01/06 00:48:54;;;;;;;;;36.67;36.67;;;;;;;;5254735;28;10275;-69
2022/01/06 00:51:25;;;;;;;;;29.33;27.67;;;;;;;;5271318;28;11394;-69
2022/01/06 00:53:56;;;;;;;;;22.67;22.67;;;;;;;;5271591;28;9217;-69
2022/01/06 00:56:27;;;;;;;;;19.25;17.75;;;;;;;;5271644;28;10948;-69
2022/01/06 00:58:59;;;;;;;;;21.00;21.00;;;;;;;;5271520;28;8794;-70
2022/01/06 01:01:30;;;;;;;;;13.00;10.75;;;;;;;;5254624;28;8867;-70
2022/01/06 01:04:01;;;;;;;;;25.75;25.25;;;;;;;;5271432;28;8762;-69
2022/01/06 01:06:33;;;;;;;;;6.25;3.25;;;;;;;;5271339;28;8762;-68
2022/01/06 01:09:05;;;;;;;;;23.33;23.33;;;;;;;;5254657;28;8817;-67
2022/01/06 01:11:38;;;;;;;;;16.67;16.67;;;;;;;;5271050;28;9186;-69
2022/01/06 01:14:25;;;;;;;;;14.00;12.75;;;;;;;;5254331;28;8965;-68
2022/01/06 01:16:59;;;;;;;;;25.00;23.25;;;;;;;;5271222;28;8782;-69
2022/01/06 01:19:31;;;;;;;;;23.50;22.00;;;;;;;;5254436;28;8865;-68
2022/01/06 01:22:02;;;;;;;;;24.50;24.00;;;;;;;;5254630;28;9529;-68
2022/01/06 01:24:34;;;;;;;;;30.33;28.00;;;;;;;;5271219;28;8792;-68
2022/01/06 01:27:07;;;;;;;;;23.50;21.00;;;;;;;;5271213;28;8935;-69
2022/01/06 01:29:50;;;;;;;;;31.67;30.67;;;;;;;;5289145;28;8928;-69
2022/01/06 01:32:32;;;;;;;;;32.33;31.00;;;;;;;;5254440;28;8841;-68
2022/01/06 01:35:06;;;;;;;;;39.00;39.00;;;;;;;;5254444;28;8895;-68
2022/01/06 01:37:39;;;;;;;;;42.33;39.67;;;;;;;;5253894;28;9045;-68
2022/01/06 01:40:11;;;;;;;;;24.00;22.00;;;;;;;;5288916;28;9004;-68
2022/01/06 01:42:42;;;;;;;;;62.75;54.00;;;;;;;;5253887;28;8914;-67
2022/01/06 01:45:14;;;;;;;;;65.00;51.67;;;;;;;;5289116;28;9817;-68
2022/01/06 01:47:45;;;;;;;;;36.00;33.67;;;;;;;;5253806;28;9474;-67
2022/01/06 01:50:17;;;;;;;;;21.75;21.50;;;;;;;;5270654;28;9266;-67
2022/01/06 01:52:53;;;;;;;;;15.75;15.25;;;;;;;;5288298;28;8794;-68
2022/01/06 01:55:29;;;;;;;;;4.50;4.50;;;;;;;;5254046;28;8900;-67
2022/01/06 01:58:20;;;;;;;;;18.33;18.33;;;;;;;;5288747;28;8812;-68
2022/01/06 02:00:51;;;;;;;;;12.00;9.50;;;;;;;;5254315;28;9110;-68
2022/01/06 02:03:22;;;;;;;;;8.50;8.50;;;;;;;;5270768;28;8800;-68
2022/01/06 02:05:53;;;;;;;;;13.00;12.67;;;;;;;;5236801;28;8853;-68
2022/01/06 02:08:25;;;;;;;;;9.00;9.00;;;;;;;;5270277;28;8934;-68
2022/01/06 02:11:14;;;;;;;;;34.00;33.67;;;;;;;;5271208;28;8769;-67
2022/01/06 02:14:05;;;;;;;;;24.00;24.00;;;;;;;;5270011;28;9001;-68
2022/01/06 02:16:37;;;;;;;;;23.50;22.25;;;;;;;;5288631;28;8796;-69
2022/01/06 02:19:09;;;;;;;;;36.00;33.67;;;;;;;;5253852;28;8781;-69
2022/01/06 02:21:41;;;;;;;;;39.67;34.67;;;;;;;;5253277;28;8855;-69
2022/01/06 02:24:12;;;;;;;;;17.33;17.33;;;;;;;;5253711;28;8772;-69
2022/01/06 02:26:43;;;;;;;;;36.33;34.67;;;;;;;;5253625;28;8882;-69
2022/01/06 02:29:33;;;;;;;;;33.33;31.67;;;;;;;;5269607;28;8839;-69
2022/01/06 02:32:08;;;;;;;;;45.00;45.00;;;;;;;;5257287;28;9565;-68
2022/01/06 02:34:39;;;;;;;;;34.33;33.67;;;;;;;;5274970;28;8822;-66
2022/01/06 02:37:11;;;;;;;;;58.25;51.50;;;;;;;;5241230;28;9643;-67
2022/01/06 02:39:44;;;;;;;;;61.67;51.67;;;;;;;;5257619;28;9495;-67
2022/01/06 02:42:15;;;;;;;;;50.00;45.00;;;;;;;;5240480;28;9809;-67
2022/01/06 02:44:46;;;;;;;;;32.25;32.25;;;;;;;;5274131;28;8972;-67
2022/01/06 02:47:17;;;;;;;;;31.00;30.67;;;;;;;;5274183;28;9588;-68
2022/01/06 02:49:48;;;;;;;;;16.50;16.50;;;;;;;;5257388;28;8827;-68
2022/01/06 02:52:20;;;;;;;;;12.25;12.25;;;;;;;;5292222;28;8977;-68
2022/01/06 02:55:12;;;;;;;;;6.50;6.50;;;;;;;;5292570;28;8795;-67
2022/01/06 02:57:44;;;;;;;;;19.25;15.00;;;;;;;;5273850;28;8848;-67
2022/01/06 03:00:17;;;;;;;;;15.25;13.50;;;;;;;;5257165;28;9528;-67
2022/01/06 03:02:48;;;;;;;;;25.00;24.25;;;;;;;;5291879;28;8764;-68
2022/01/06 03:05:19;;;;;;;;;30.25;29.25;;;;;;;;5273992;28;8764;-68
2022/01/06 03:07:51;;;;;;;;;16.00;15.00;;;;;;;;5273737;28;8777;-68
2022/01/06 03:10:26;;;;;;;;;8.00;7.25;;;;;;;;5257385;28;8891;-68
2022/01/06 03:12:57;;;;;;;;;21.25;21.00;;;;;;;;5273626;28;8943;-68
2022/01/06 03:15:28;;;;;;;;;12.25;12.25;;;;;;;;5273604;28;8841;-68
2022/01/06 03:17:59;;;;;;;;;37.33;35.67;;;;;;;;5256241;28;8784;-70
2022/01/06 03:20:49;;;;;;;;;29.50;29.00;;;;;;;;5259157;28;9101;-68
2022/01/06 03:23:20;;;;;;;;;18.75;18.75;;;;;;;;5240100;28;8773;-68
2022/01/06 03:25:51;;;;;;;;;8.00;8.00;;;;;;;;5257091;28;8829;-68
2022/01/06 03:28:23;;;;;;;;;18.75;18.75;;;;;;;;5256705;28;8800;-69
2022/01/06 03:30:54;;;;;;;;;10.75;10.75;;;;;;;;5273515;28;8761;-70
2022/01/06 03:33:25;;;;;;;;;12.75;12.75;;;;;;;;5239989;28;8845;-69
2022/01/06 03:35:57;;;;;;;;;6.75;6.75;;;;;;;;5256330;28;8803;-69
2022/01/06 03:38:28;;;;;;;;;7.00;7.00;;;;;;;;5256975;28;8806;-69
2022/01/06 03:41:17;;;;;;;;;8.50;8.50;;;;;;;;5276219;28;8781;-69
2022/01/06 03:43:49;;;;;;;;;22.00;21.50;;;;;;;;5239499;28;8753;-69
2022/01/06 03:46:20;;;;;;;;;15.75;15.50;;;;;;;;5239744;28;8788;-69
2022/01/06 03:48:51;;;;;;;;;30.00;28.00;;;;;;;;5256629;28;8808;-68
2022/01/06 03:51:23;;;;;;;;;13.50;13.50;;;;;;;;5255620;28;8846;-68
2022/01/06 03:53:54;;;;;;;;;9.75;8.50;;;;;;;;5239352;28;8772;-68
2022/01/06 03:56:25;;;;;;;;;12.33;12.33;;;;;;;;5240048;28;8783;-69
2022/01/06 03:58:56;;;;;;;;;9.50;9.50;;;;;;;;5290718;28;9054;-70
2022/01/06 04:01:29;;;;;;;;;3.25;3.25;;;;;;;;5251887;28;8819;-70
2022/01/06 04:04:00;;;;;;;;;6.50;6.50;;;;;;;;5271524;28;8825;-69
2022/01/06 04:06:32;;;;;;;;;48.00;46.00;;;;;;;;5239004;28;8788;-69
2022/01/06 04:09:03;;;;;;;;;38.50;33.75;;;;;;;;5290836;28;9635;-69
2022/01/06 04:11:53;;;;;;;;;57.67;50.33;;;;;;;;5258411;28;8784;-70
2022/01/06 04:14:24;;;;;;;;;46.75;42.75;;;;;;;;5239786;28;8870;-69
2022/01/06 04:16:59;;;;;;;;;18.67;17.67;;;;;;;;5255465;28;8838;-67
2022/01/06 04:19:30;;;;;;;;;9.25;9.25;;;;;;;;5255151;28;8784;-68
2022/01/06 04:26:25;;;;;;;;;7.00;7.00;;;;;;;;5290621;28;8705;-68
2022/01/06 04:28:57;;;;;;;;;21.50;21.50;;;;;;;;5255541;28;8854;-68
2022/01/06 04:31:28;;;;;;;;;31.50;30.00;;;;;;;;5290812;28;8781;-68
2022/01/06 04:33:59;;;;;;;;;22.00;21.25;;;;;;;;5271806;28;8795;-69
2022/01/06 04:36:30;;;;;;;;;7.25;4.50;;;;;;;;5272002;28;8780;-69
2022/01/06 04:39:19;;;;;;;;;15.75;15.25;;;;;;;;5272295;28;8764;-69
2022/01/06 04:41:51;;;;;;;;;35.00;31.75;;;;;;;;5271943;28;8772;-68
2022/01/06 04:44:22;;;;;;;;;34.67;29.67;;;;;;;;5254273;28;8788;-68
2022/01/06 04:46:53;;;;;;;;;36.67;31.67;;;;;;;;5254943;28;9448;-68
2022/01/06 04:49:24;;;;;;;;;45.50;42.25;;;;;;;;5254923;28;9657;-70
2022/01/06 04:51:56;;;;;;;;;23.50;21.75;;;;;;;;5271042;28;8792;-73
2022/01/06 04:54:28;;;;;;;;;15.50;15.50;;;;;;;;5271531;28;8796;-71
2022/01/06 04:56:59;;;;;;;;;8.00;8.00;;;;;;;;5254547;28;9547;-72
2022/01/06 04:59:31;;;;;;;;;5.00;5.00;;;;;;;;5271530;28;8834;-71
2022/01/06 05:02:02;;;;;;;;;6.25;6.25;;;;;;;;5289573;28;8777;-71
2022/01/06 05:04:34;;;;;;;;;3.25;3.25;;;;;;;;5254047;28;8905;-70
2022/01/06 05:07:24;;;;;;;;;3.50;3.50;;;;;;;;5289151;28;8764;-71
2022/01/06 05:09:55;;;;;;;;;4.00;4.00;;;;;;;;5254668;28;8792;-71
2022/01/06 05:12:26;;;;;;;;;3.25;3.25;;;;;;;;5237690;28;8776;-70
2022/01/06 05:14:57;;;;;;;;;5.60;5.60;;;;;;;;5290416;28;8818;-69
2022/01/06 05:17:46;;;;;;;;;6.00;6.00;;;;;;;;5289497;28;9204;-74
2022/01/06 05:20:24;;;;;;;;;7.00;7.00;;;;;;;;5288882;28;8870;-74
2022/01/06 05:27:18;;;;;;;;;3.40;3.00;;;;;;;;5288760;28;8740;-68
2022/01/06 05:29:49;;;;;;;;;4.00;4.00;;;;;;;;5288959;28;8808;-69
2022/01/06 05:32:21;;;;;;;;;3.25;2.00;;;;;;;;5253953;28;8749;-75
2022/01/06 05:34:52;;;;;;;;;6.50;6.00;;;;;;;;5270880;28;8795;-69
2022/01/06 05:37:24;;;;;;;;;2.50;2.50;;;;;;;;5253455;28;8799;-71
2022/01/06 05:39:55;;;;;;;;;1.00;1.00;;;;;;;;5253541;28;8801;-70
2022/01/06 05:42:26;;;;;;;;;3.40;3.40;;;;;;;;5254128;28;8780;-70
2022/01/06 05:44:57;;;;;;;;;3.00;3.00;;;;;;;;5288221;28;9549;-70
2022/01/06 05:47:28;;;;;;;;;0.00;0.00;;;;;;;;5270050;28;8807;-72
2022/01/06 05:49:59;;;;;;;;;3.40;3.40;;;;;;;;5253382;28;8796;-68
2022/01/06 05:52:30;;;;;;;;;1.00;1.00;;;;;;;;5288120;28;8907;-69
2022/01/06 05:59:24;;;;;;;;;3.00;3.00;;;;;;;;5289111;28;8756;-70
2022/01/06 06:06:19;;;;;;;;;5.20;3.80;;;;;;;;5287711;28;8689;-71
2022/01/06 06:08:50;;;;;;;;;1.00;1.00;;;;;;;;5253864;28;8804;-71
2022/01/06 06:11:21;;;;;;;;;4.25;4.25;;;;;;;;5254048;28;9876;-70
2022/01/06 06:13:52;;;;;;;;;8.20;8.20;;;;;;;;5237094;28;8793;-70
2022/01/06 06:16:24;;;;;;;;;29.00;26.67;;;;;;;;5253464;28;8764;-69
2022/01/06 06:18:56;;;;;;;;;15.25;15.25;;;;;;;;5236637;28;9178;-71
2022/01/06 06:21:27;;;;;;;;;8.00;8.00;;;;;;;;5236944;28;8930;-69
2022/01/06 06:23:58;;;;;;;;;0.00;0.00;;;;;;;;5270215;28;8820;-69
2022/01/06 06:26:29;;;;;;;;;6.60;6.60;;;;;;;;5269993;28;9646;-70
2022/01/06 06:29:01;;;;;;;;;10.75;10.75;;;;;;;;5270078;28;8862;-73
2022/01/06 06:31:50;;;;;;;;;40.00;36.00;;;;;;;;5255280;28;8777;-71
2022/01/06 06:34:22;;;;;;;;;13.00;13.00;;;;;;;;5270050;28;8765;-71
2022/01/06 06:36:53;;;;;;;;;17.75;17.75;;;;;;;;5269557;28;8792;-71
2022/01/06 06:39:24;;;;;;;;;32.00;30.00;;;;;;;;5236474;28;8800;-71
2022/01/06 06:41:55;;;;;;;;;25.75;25.75;;;;;;;;5252815;28;8783;-70
2022/01/06 06:44:29;;;;;;;;;41.75;41.75;;;;;;;;5269771;28;8794;-70
2022/01/06 06:51:23;;;;;;;;;21.50;20.00;;;;;;;;5287891;28;8756;-70
2022/01/06 06:53:54;;;;;;;;;47.00;39.67;;;;;;;;5287344;28;8765;-70
2022/01/06 06:56:25;;;;;;;;;22.00;19.00;;;;;;;;5253592;28;11204;-73
2022/01/06 06:59:14;;;;;;;;;22.75;22.75;;;;;;;;5272553;28;9519;-73
2022/01/06 07:01:45;;;;;;;;;40.25;38.75;;;;;;;;5253429;28;8796;-73
2022/01/06 07:04:16;;;;;;;;;35.33;35.33;;;;;;;;5253507;28;8807;-74
2022/01/06 07:06:47;;;;;;;;;84.33;58.00;;;;;;;;5253469;28;11394;-73
2022/01/06 07:09:18;;;;;;;;;50.25;47.50;;;;;;;;5269964;28;8812;-72
2022/01/06 07:11:50;;;;;;;;;28.00;27.00;;;;;;;;5269624;28;8780;-73
2022/01/06 07:14:21;;;;;;;;;34.25;33.50;;;;;;;;5252951;28;8775;-72
2022/01/06 07:16:52;;;;;;;;;26.00;23.75;;;;;;;;5256552;28;8786;-73
2022/01/06 07:19:24;;;;;;;;;40.25;37.75;;;;;;;;5273702;28;8780;-72
2022/01/06 07:21:55;;;;;;;;;24.75;22.75;;;;;;;;5273694;28;8807;-73
2022/01/06 07:24:26;;;;;;;;;15.20;14.60;;;;;;;;5273994;28;8791;-73
2022/01/06 07:26:57;;;;;;;;;22.00;22.00;;;;;;;;5256502;28;8796;-73
2022/01/06 07:29:29;;;;;;;;;24.00;21.75;;;;;;;;5255988;28;8808;-72
2022/01/06 07:36:23;;;;;;;;;48.00;43.00;;;;;;;;5290671;28;8704;-73
2022/01/06 07:38:54;;;;;;;;;26.50;24.25;;;;;;;;5239594;28;8777;-71
2022/01/06 07:41:25;;;;;;;;;25.67;22.67;;;;;;;;5256320;28;8787;-72
2022/01/06 07:43:56;;;;;;;;;17.00;17.00;;;;;;;;5272820;28;8769;-73
2022/01/06 07:46:27;;;;;;;;;34.67;31.67;;;;;;;;5255725;28;9602;-77
2022/01/06 07:48:58;;;;;;;;;38.33;37.67;;;;;;;;5256057;28;8823;-74
2022/01/06 07:51:30;;;;;;;;;13.00;12.00;;;;;;;;5291355;28;11499;-73
2022/01/06 07:54:01;;;;;;;;;36.75;33.75;;;;;;;;5272392;28;11440;-73
2022/01/06 07:56:33;;;;;;;;;79.00;66.00;;;;;;;;5255690;28;8772;-72
2022/01/06 07:59:04;;;;;;;;;69.00;57.33;;;;;;;;5272148;28;9128;-73
2022/01/06 08:01:35;;;;;;;;;71.00;55.33;;;;;;;;5272443;28;9870;-72
2022/01/06 08:08:48;;;;;;;;;28.50;27.00;;;;;;;;5290462;28;8788;-72
2022/01/06 08:11:37;;;;;;;;;32.25;32.00;;;;;;;;5258068;28;8925;-73
2022/01/06 08:14:08;;;;;;;;;41.33;40.67;;;;;;;;5272450;28;8780;-73
2022/01/06 08:17:00;;;;;;;;;28.75;25.75;;;;;;;;5271742;28;8820;-73
2022/01/06 08:23:54;;;;;;;;;23.50;23.00;;;;;;;;5290472;28;8709;-75
2022/01/06 08:26:25;;;;;;;;;31.33;31.33;;;;;;;;5271915;28;8801;-74
2022/01/06 08:28:56;;;;;;;;;29.33;28.67;;;;;;;;5271466;28;8815;-74
2022/01/06 08:31:46;;;;;;;;;19.50;18.50;;;;;;;;5289830;28;11414;-75
2022/01/06 08:34:35;;;;;;;;;24.75;19.75;;;;;;;;5275978;28;8780;-74
2022/01/06 08:37:06;;;;;;;;;18.00;17.33;;;;;;;;5239214;28;9531;-74
2022/01/06 08:39:37;;;;;;;;;37.00;34.67;;;;;;;;5254141;28;9339;-73
2022/01/06 08:42:08;;;;;;;;;42.33;35.67;;;;;;;;5254636;28;8804;-74
2022/01/06 08:44:39;;;;;;;;;33.25;32.75;;;;;;;;5271366;28;8788;-75
2022/01/06 08:47:10;;;;;;;;;26.00;24.25;;;;;;;;5271908;28;8764;-74
2022/01/06 08:49:41;;;;;;;;;29.33;28.00;;;;;;;;5237166;28;8795;-74
2022/01/06 08:52:12;;;;;;;;;40.00;38.00;;;;;;;;5270591;28;11526;-71
2022/01/06 08:54:43;;;;;;;;;48.50;45.00;;;;;;;;5237552;28;8788;-74
2022/01/06 09:01:51;;;;;;;;;86.00;66.33;;;;;;;;5268372;28;8889;-72
2022/01/06 09:04:22;;;;;;;;;91.00;69.00;;;;;;;;5250281;28;10009;-73
2022/01/06 09:06:53;;;;;;;;;80.33;64.00;;;;;;;;5217054;28;9384;-74
2022/01/06 09:09:24;;;;;;;;;73.00;58.00;;;;;;;;5229440;28;8806;-73
2022/01/06 09:11:56;;;;;;;;;52.75;48.75;;;;;;;;5233380;28;8783;-72
2022/01/06 09:14:27;;;;;;;;;39.25;37.75;;;;;;;;5234056;28;8774;-74
2022/01/06 09:17:16;;;;;;;;;23.60;23.60;;;;;;;;5254118;28;9472;-72
2022/01/06 09:19:47;;;;;;;;;22.75;22.75;;;;;;;;5241211;28;8854;-73
2022/01/06 09:22:18;;;;;;;;;24.00;24.00;;;;;;;;5255437;28;8859;-73
2022/01/06 09:24:49;;;;;;;;;23.33;23.33;;;;;;;;5233283;28;9465;-73
2022/01/06 09:27:20;;;;;;;;;11.50;11.50;;;;;;;;5267756;28;8787;-73
2022/01/06 09:29:52;;;;;;;;;26.00;24.67;;;;;;;;5233067;28;8928;-70
2022/01/06 09:32:23;;;;;;;;;16.40;16.40;;;;;;;;5216688;28;8778;-72
2022/01/06 09:34:53;;;;;;;;;11.50;11.50;;;;;;;;5249733;28;9588;-75
2022/01/06 09:37:25;;;;;;;;;13.25;13.00;;;;;;;;5233018;28;9586;-73
2022/01/06 09:39:56;;;;;;;;;17.40;16.80;;;;;;;;5249623;28;8830;-73
2022/01/06 09:42:26;;;;;;;;;18.25;16.00;;;;;;;;5232926;28;8787;-73
2022/01/06 09:44:58;;;;;;;;;14.50;13.75;;;;;;;;5249601;28;9667;-73
2022/01/06 09:47:30;;;;;;;;;23.40;23.20;;;;;;;;5267867;28;8833;-74
2022/01/06 09:50:00;;;;;;;;;30.20;28.00;;;;;;;;5249689;28;8799;-73
2022/01/06 09:52:33;;;;;;;;;19.40;19.20;;;;;;;;5249737;28;8790;-73
2022/01/06 09:55:05;;;;;;;;;15.80;14.60;;;;;;;;5233363;28;8909;-74
2022/01/06 09:57:36;;;;;;;;;24.75;22.50;;;;;;;;5249318;28;8775;-73
2022/01/06 10:00:11;;;;;;;;;22.00;20.75;;;;;;;;5235848;28;8873;-74
2022/01/06 10:02:51;;;;;;;;;22.80;21.60;;;;;;;;5253337;28;8908;-73
2022/01/06 10:05:22;;;;;;;;;17.20;17.20;;;;;;;;5236698;28;8782;-75
2022/01/06 10:07:53;;;;;;;;;18.40;18.20;;;;;;;;5270665;28;8794;-74
2022/01/06 10:10:27;;;;;;;;;31.00;30.60;;;;;;;;5269282;28;9442;-75
2022/01/06 10:17:30;;;;;;;;;6.60;6.60;;;;;;;;5287624;28;8711;-76
2022/01/06 10:24:28;;;;;;;;;12.40;12.00;;;;;;;;5287820;28;8715;-73
2022/01/06 10:27:04;;;;;;;;;17.20;17.00;;;;;;;;5253254;28;8867;-71
2022/01/06 10:29:38;;;;;;;;;13.80;13.60;;;;;;;;5253453;28;8814;-74
2022/01/06 10:32:14;;;;;;;;;9.20;9.20;;;;;;;;5269688;28;8799;-73
2022/01/06 10:34:49;;;;;;;;;10.40;10.40;;;;;;;;5236841;28;8783;-73
2022/01/06 10:37:22;;;;;;;;;17.20;15.60;;;;;;;;5270302;28;9469;-72
2022/01/06 10:40:13;;;;;;;;;12.20;10.80;;;;;;;;5252053;28;8799;-76
2022/01/06 10:42:48;;;;;;;;;9.80;9.80;;;;;;;;5287727;28;8778;-74
2022/01/06 10:45:24;;;;;;;;;26.00;26.00;;;;;;;;5252968;28;8811;-73
2022/01/06 10:47:56;;;;;;;;;16.00;16.00;;;;;;;;5235929;28;8817;-72
2022/01/06 10:50:31;;;;;;;;;9.20;9.00;;;;;;;;5287595;28;8929;-73
2022/01/06 10:53:07;;;;;;;;;4.80;4.80;;;;;;;;5257579;28;9470;-75
2022/01/06 10:55:39;;;;;;;;;10.00;10.00;;;;;;;;5257995;28;8779;-75
2022/01/06 10:58:17;;;;;;;;;14.80;13.80;;;;;;;;5291942;28;8797;-75
2022/01/06 11:01:07;;;;;;;;;10.00;10.00;;;;;;;;5276750;28;8787;-73
2022/01/06 11:03:38;;;;;;;;;10.50;10.00;;;;;;;;5245609;27;9554;-74
2022/01/06 11:06:10;;;;;;;;;10.00;10.00;;;;;;;;5295878;27;8764;-75
2022/01/06 11:08:43;;;;;;;;;22.00;21.80;;;;;;;;5295229;27;8792;-75
2022/01/06 11:11:27;;;;;;;;;8.60;8.60;;;;;;;;5277924;27;8786;-74
2022/01/06 11:13:58;;;;;;;;;14.60;13.00;;;;;;;;5295054;27;9506;-75
2022/01/06 11:16:29;;;;;;;;;14.60;14.60;;;;;;;;5290122;27;8808;-73
2022/01/06 11:19:01;;;;;;;;;12.60;12.60;;;;;;;;5272781;28;8786;-75
2022/01/06 11:26:11;;;;;;;;;12.80;12.00;;;;;;;;5291884;28;8703;-76
2022/01/06 11:28:42;;;;;;;;;22.00;21.60;;;;;;;;5273316;28;8800;-75
2022/01/06 11:31:14;;;;;;;;;18.20;17.60;;;;;;;;5279651;27;8822;-74
2022/01/06 11:33:46;;;;;;;;;9.40;8.60;;;;;;;;5291732;27;9487;-76
2022/01/06 11:36:20;;;;;;;;;3.00;2.20;;;;;;;;5260651;27;8848;-74
2022/01/06 11:43:15;;;;;;;;;21.80;21.80;;;;;;;;5312492;27;8720;-74
2022/01/06 11:45:45;;;;;;;;;9.00;9.00;;;;;;;;5294330;27;8848;-73
2022/01/06 11:48:18;;;;;;;;;9.75;9.75;;;;;;;;5290382;27;8813;-74
2022/01/06 11:50:51;;;;;;;;;13.60;13.60;;;;;;;;5274910;27;8890;-76
2022/01/06 11:58:06;;;;;;;;;7.40;7.00;;;;;;;;5312118;27;8783;-69
2022/01/06 12:00:41;;;;;;;;;14.60;12.00;;;;;;;;5259666;27;8784;-73
2022/01/06 12:03:13;;;;;;;;;15.40;15.00;;;;;;;;5276083;27;8752;-77
2022/01/06 12:05:48;;;;;;;;;12.00;12.00;;;;;;;;5260562;27;9466;-72
2022/01/06 12:17:23;;;;;;;;;12.80;9.80;;;;;;;;5311818;27;8724;-72
2022/01/06 12:19:54;;;;;;;;;17.60;15.20;;;;;;;;5259854;27;8775;-74
2022/01/06 12:22:27;;;;;;;;;14.50;14.50;;;;;;;;5292755;27;8768;-71
2022/01/06 12:25:00;;;;;;;;;23.00;23.00;;;;;;;;5311371;27;8756;-72
2022/01/06 12:27:31;;;;;;;;;19.00;19.00;;;;;;;;5311629;27;9604;-72
2022/01/06 12:30:05;;;;;;;;;14.00;12.80;;;;;;;;5292757;27;8795;-77
2022/01/06 12:32:36;;;;;;;;;15.00;12.40;;;;;;;;5260085;27;8771;-72
2022/01/06 12:35:07;;;;;;;;;5.60;4.80;;;;;;;;5292723;27;8811;-72
2022/01/06 12:37:38;;;;;;;;;17.60;16.40;;;;;;;;5292154;27;8840;-73
2022/01/06 12:40:09;;;;;;;;;13.00;12.75;;;;;;;;5275899;27;8804;-72
2022/01/06 12:42:42;;;;;;;;;19.80;19.60;;;;;;;;5275280;27;8782;-71
2022/01/06 12:49:37;;;;;;;;;10.20;10.20;;;;;;;;5310697;27;8760;-71
2022/01/06 12:52:08;;;;;;;;;15.50;15.50;;;;;;;;5292897;27;8764;-73
2022/01/06 12:54:41;;;;;;;;;17.40;16.40;;;;;;;;5291909;27;8803;-72
2022/01/06 13:02:02;;;;;;;;;23.40;23.40;;;;;;;;5283220;28;8786;-72
2022/01/06 13:04:34;;;;;;;;;21.60;21.20;;;;;;;;5249916;28;8895;-72
2022/01/06 13:11:29;;;;;;;;;18.80;18.00;;;;;;;;5267883;28;8759;-74
2022/01/06 13:18:27;;;;;;;;;18.40;17.80;;;;;;;;5267798;28;8730;-71
2022/01/06 13:20:59;;;;;;;;;13.00;13.00;;;;;;;;5249483;28;8819;-70
2022/01/06 13:28:03;;;;;;;;;14.40;14.40;;;;;;;;5266925;28;8754;-71
2022/01/06 13:30:35;;;;;;;;;12.80;12.20;;;;;;;;5267777;28;8901;-72
2022/01/06 13:33:10;;;;;;;;;15.80;15.00;;;;;;;;5249265;28;8783;-72
2022/01/06 13:35:57;;;;;;;;;71.75;51.75;;;;;;;;5266177;28;8787;-71
2022/01/06 13:38:30;;;;;;;;;23.40;22.00;;;;;;;;5249504;28;8794;-73
2022/01/06 13:41:06;;;;;;;;;12.40;11.20;;;;;;;;5216270;28;8913;-72
2022/01/06 13:43:38;;;;;;;;;15.60;13.80;;;;;;;;5249115;28;8798;-72
2022/01/06 13:46:20;;;;;;;;;16.00;15.60;;;;;;;;5248937;28;8787;-72
2022/01/06 13:56:16;;;;;;;;;18.60;18.20;;;;;;;;5267221;28;8727;-72
2022/01/06 13:58:49;;;;;;;;;17.40;17.20;;;;;;;;5233213;28;8759;-71
2022/01/06 14:01:23;;;;;;;;;24.40;23.20;;;;;;;;5250680;28;8779;-70
2022/01/06 14:03:57;;;;;;;;;14.60;12.80;;;;;;;;5267405;28;8796;-72
2022/01/06 14:06:28;;;;;;;;;15.20;14.60;;;;;;;;5237017;28;8764;-73
2022/01/06 14:08:59;;;;;;;;;16.50;15.00;;;;;;;;5269994;28;9569;-71
2022/01/06 14:11:30;;;;;;;;;15.75;15.75;;;;;;;;5237345;28;8793;-71
2022/01/06 14:14:01;;;;;;;;;9.50;8.50;;;;;;;;5269663;28;9797;-70
2022/01/06 14:16:32;;;;;;;;;8.50;8.50;;;;;;;;5270104;28;8784;-70
2022/01/06 14:19:22;;;;;;;;;11.60;11.60;;;;;;;;5255849;28;10422;-71
2022/01/06 14:26:42;;;;;;;;;20.40;20.40;;;;;;;;5287441;28;8725;-70
2022/01/06 14:29:13;;;;;;;;;18.60;16.20;;;;;;;;5235822;28;8819;-72
2022/01/06 14:31:44;;;;;;;;;23.00;23.00;;;;;;;;5253219;28;8791;-72
2022/01/06 14:34:15;;;;;;;;;23.20;23.00;;;;;;;;5235918;28;8780;-73
2022/01/06 14:41:10;;;;;;;;;16.60;16.60;;;;;;;;5288007;28;8740;-71
2022/01/06 14:48:10;;;;;;;;;52.00;40.00;;;;;;;;5287188;28;8748;-73
2022/01/06 14:51:00;;;;;;;;;6.00;6.00;;;;;;;;5287256;28;8935;-71
2022/01/06 14:53:50;;;;;;;;;12.80;11.80;;;;;;;;5272469;28;8788;-71
2022/01/06 15:00:44;;;;;;;;;18.60;18.60;;;;;;;;5287252;28;8737;-71
2022/01/06 15:03:20;;;;;;;;;7.00;7.00;;;;;;;;5287417;28;8800;-71
2022/01/06 15:06:09;;;;;;;;;16.60;16.60;;;;;;;;5288270;28;8788;-71
2022/01/06 15:08:40;;;;;;;;;37.25;35.75;;;;;;;;5252540;28;8780;-73
2022/01/06 15:11:11;;;;;;;;;25.75;22.75;;;;;;;;5252336;28;11136;-73
2022/01/06 15:13:42;;;;;;;;;24.50;22.00;;;;;;;;5268767;28;8909;-71
2022/01/06 15:16:12;;;;;;;;;30.25;29.00;;;;;;;;5253077;28;8772;-71
2022/01/06 15:18:43;;;;;;;;;22.25;21.50;;;;;;;;5287960;28;9346;-73
2022/01/06 15:21:37;;;;;;;;;18.60;18.60;;;;;;;;5271829;28;8760;-71
2022/01/06 15:24:26;;;;;;;;;23.00;20.00;;;;;;;;5287442;28;8761;-71
2022/01/06 15:26:57;;;;;;;;;11.00;9.00;;;;;;;;5269075;28;8834;-74
2022/01/06 15:29:28;;;;;;;;;25.00;18.25;;;;;;;;5252156;28;8792;-70
2022/01/06 15:31:59;;;;;;;;;17.75;17.00;;;;;;;;5236899;28;8800;-73
2022/01/06 15:34:29;;;;;;;;;33.00;32.00;;;;;;;;5252956;28;11443;-72
2022/01/06 15:37:00;;;;;;;;;29.00;26.00;;;;;;;;5252228;28;8773;-73
2022/01/06 15:39:49;;;;;;;;;26.20;24.00;;;;;;;;5275600;28;8792;-74
2022/01/06 15:42:20;;;;;;;;;22.75;20.00;;;;;;;;5272928;28;9498;-73
2022/01/06 15:44:51;;;;;;;;;90.33;66.33;;;;;;;;5273634;28;8791;-74
2022/01/06 15:51:45;;;;;;;;;30.60;30.40;;;;;;;;5290979;28;8764;-75
2022/01/06 15:54:18;;;;;;;;;25.25;20.00;;;;;;;;5255971;28;8777;-74
2022/01/06 15:56:49;;;;;;;;;36.40;35.40;;;;;;;;5255713;28;11399;-73
2022/01/06 15:59:26;;;;;;;;;24.80;23.60;;;;;;;;5256223;28;8800;-73
2022/01/06 16:15:58;;;;;;;;;13.40;12.80;;;;;;;;5290210;28;8709;-73
2022/01/06 16:18:29;;;;;;;;;21.60;20.60;;;;;;;;5239164;28;8788;-72
2022/01/06 16:25:24;;;;;;;;;13.80;12.20;;;;;;;;5290238;28;8720;-72
2022/01/06 16:27:55;;;;;;;;;26.80;24.00;;;;;;;;5272754;28;8837;-72
2022/01/06 16:30:37;;;;;;;;;27.50;26.50;;;;;;;;5272519;28;8793;-72
2022/01/06 16:33:08;;;;;;;;;24.40;24.00;;;;;;;;5239384;28;8811;-72
2022/01/06 16:35:39;;;;;;;;;22.20;20.20;;;;;;;;5272014;28;9476;-73
2022/01/06 16:38:10;;;;;;;;;27.75;25.00;;;;;;;;5290449;28;8808;-71
2022/01/06 16:40:41;;;;;;;;;24.80;24.00;;;;;;;;5255631;28;10118;-73
2022/01/06 16:43:12;;;;;;;;;21.75;20.00;;;;;;;;5271889;28;8823;-72
2022/01/06 16:45:43;;;;;;;;;17.50;16.00;;;;;;;;5272117;28;9110;-72
2022/01/06 16:48:14;;;;;;;;;20.20;17.40;;;;;;;;5289699;28;8776;-72
2022/01/06 16:50:45;;;;;;;;;15.25;14.75;;;;;;;;5237626;28;8851;-72
2022/01/06 16:53:16;;;;;;;;;27.75;26.50;;;;;;;;5254724;28;11481;-73
2022/01/06 16:55:47;;;;;;;;;42.20;39.00;;;;;;;;5237908;28;8784;-73
2022/01/06 16:58:17;;;;;;;;;37.75;36.75;;;;;;;;5271602;28;8806;-72
2022/01/06 17:05:25;;;;;;;;;24.80;24.60;;;;;;;;5268316;28;8775;-73
2022/01/06 17:07:57;;;;;;;;;21.25;21.25;;;;;;;;5250324;28;8790;-72
2022/01/06 17:10:29;;;;;;;;;13.40;12.60;;;;;;;;5268924;28;8801;-72
2022/01/06 17:13:01;;;;;;;;;20.00;18.40;;;;;;;;5249884;28;8790;-72
2022/01/06 17:15:32;;;;;;;;;22.60;22.60;;;;;;;;5216475;28;8786;-72
2022/01/06 17:18:03;;;;;;;;;11.00;10.20;;;;;;;;5216863;28;8779;-72
2022/01/06 17:20:34;;;;;;;;;15.75;15.00;;;;;;;;5233362;28;8791;-72
2022/01/06 17:23:05;;;;;;;;;23.00;23.00;;;;;;;;5249435;28;8781;-72
2022/01/06 17:34:35;;;;;;;;;13.20;12.20;;;;;;;;5272799;28;8726;-72
2022/01/06 17:37:06;;;;;;;;;23.50;23.50;;;;;;;;5256201;28;8786;-70
2022/01/06 17:44:00;;;;;;;;;17.80;16.80;;;;;;;;5275059;28;8778;-71
2022/01/06 17:50:54;;;;;;;;;20.20;19.00;;;;;;;;5273291;28;8735;-71
2022/01/06 17:53:25;;;;;;;;;20.00;20.00;;;;;;;;5273619;28;8771;-71
2022/01/06 17:55:56;;;;;;;;;18.00;18.00;;;;;;;;5272610;28;8770;-70
2022/01/06 17:58:27;;;;;;;;;18.00;17.20;;;;;;;;5221967;28;8758;-71
2022/01/06 18:00:58;;;;;;;;;18.25;16.50;;;;;;;;5269117;28;8766;-70